Time;durP1;ratioP1;P1;durP2;ratioP2;P2;SDS_P1;SDS_P2;PMS_P1;PMS_P2;Temp;Humidity;BMP_temperature;BMP_pressure;BME280_temperature;BME280_humidity;BME280_pressure;Samples;Min_cycle;Max_cycle;Signal;HPM_P1;HPM_P2
2022/03/09 00:00:16;;;;;;;13.52;9.18;;;;;;;;;;5084604;28;20585;-64
2022/03/09 00:02:43;;;;;;;12.15;8.63;;;;;;;;;;5084631;28;20196;-64
2022/03/09 00:05:09;;;;;;;18.00;9.40;;;;;;;;;;5084809;28;20255;-64
2022/03/09 00:07:37;;;;;;;12.98;9.48;;;;;;;;;;5084233;28;20226;-64
2022/03/09 00:10:04;;;;;;;18.10;9.70;;;;;;;;;;5084611;28;20192;-64
2022/03/09 00:12:30;;;;;;;13.40;8.90;;;;;;;;;;5083586;28;20435;-64
2022/03/09 00:14:56;;;;;;;13.70;9.10;;;;;;;;;;5084499;28;20258;-64
2022/03/09 00:17:23;;;;;;;12.70;9.43;;;;;;;;;;5083980;28;20196;-64
2022/03/09 00:19:49;;;;;;;14.43;9.05;;;;;;;;;;5084580;28;20216;-64
2022/03/09 00:22:16;;;;;;;12.18;8.50;;;;;;;;;;5084324;28;20249;-64
2022/03/09 00:24:44;;;;;;;11.95;9.02;;;;;;;;;;5084513;28;20204;-64
2022/03/09 00:27:10;;;;;;;13.27;8.70;;;;;;;;;;5083963;28;20201;-64
2022/03/09 00:29:36;;;;;;;12.40;8.25;;;;;;;;;;5084215;28;20193;-64
2022/03/09 00:32:04;;;;;;;12.10;8.40;;;;;;;;;;5083963;28;20499;-64
2022/03/09 00:34:30;;;;;;;11.38;8.20;;;;;;;;;;5084047;28;20204;-64
2022/03/09 00:36:57;;;;;;;15.00;8.75;;;;;;;;;;5083933;28;20200;-64
2022/03/09 00:39:23;;;;;;;10.95;7.90;;;;;;;;;;5083972;28;20227;-64
2022/03/09 00:41:50;;;;;;;11.02;7.95;;;;;;;;;;5083985;28;20214;-64
2022/03/09 00:44:17;;;;;;;13.38;8.02;;;;;;;;;;5083967;28;20241;-64
2022/03/09 00:46:43;;;;;;;12.23;8.95;;;;;;;;;;5083646;28;20246;-64
2022/03/09 00:49:09;;;;;;;11.57;8.55;;;;;;;;;;5084033;28;20497;-64
2022/03/09 00:51:35;;;;;;;11.30;8.20;;;;;;;;;;5083877;28;20203;-64
2022/03/09 00:54:02;;;;;;;11.70;8.82;;;;;;;;;;5084029;28;20192;-64
2022/03/09 00:56:28;;;;;;;12.18;7.88;;;;;;;;;;5083495;28;20196;-64
2022/03/09 00:58:55;;;;;;;11.93;7.78;;;;;;;;;;5083570;28;20200;-64
2022/03/09 01:01:22;;;;;;;11.25;7.80;;;;;;;;;;5083597;28;20211;-64
2022/03/09 01:03:48;;;;;;;11.02;7.80;;;;;;;;;;5083569;28;20234;-64
2022/03/09 01:06:15;;;;;;;10.07;7.25;;;;;;;;;;5083256;28;20220;-64
2022/03/09 01:08:41;;;;;;;10.60;7.60;;;;;;;;;;5083456;28;20259;-64
2022/03/09 01:11:07;;;;;;;9.32;7.07;;;;;;;;;;5083404;28;20197;-64
2022/03/09 01:13:34;;;;;;;9.70;7.25;;;;;;;;;;5083139;28;20204;-64
2022/03/09 01:16:01;;;;;;;10.98;7.50;;;;;;;;;;5083170;28;20555;-64
2022/03/09 01:18:28;;;;;;;11.10;8.02;;;;;;;;;;5083289;28;20242;-64
2022/03/09 01:20:54;;;;;;;13.43;7.57;;;;;;;;;;5083169;28;20221;-64
2022/03/09 01:23:20;;;;;;;12.05;8.75;;;;;;;;;;5083167;28;20196;-64
2022/03/09 01:25:47;;;;;;;15.90;8.95;;;;;;;;;;5083074;28;20219;-64
2022/03/09 01:28:13;;;;;;;14.20;9.35;;;;;;;;;;5082813;28;20196;-64
2022/03/09 01:30:39;;;;;;;14.05;9.13;;;;;;;;;;5083227;28;20441;-64
2022/03/09 01:33:07;;;;;;;15.40;9.48;;;;;;;;;;5083423;28;20409;-64
2022/03/09 01:35:33;;;;;;;14.45;9.88;;;;;;;;;;5083137;28;20203;-64
2022/03/09 01:37:59;;;;;;;16.05;10.73;;;;;;;;;;5082706;28;20208;-64
2022/03/09 01:40:25;;;;;;;19.45;10.73;;;;;;;;;;5082748;28;20223;-64
2022/03/09 01:42:52;;;;;;;18.45;10.82;;;;;;;;;;5082880;28;20203;-64
2022/03/09 01:45:18;;;;;;;15.88;11.00;;;;;;;;;;5082904;28;20242;-64
2022/03/09 01:47:45;;;;;;;17.35;11.32;;;;;;;;;;5082650;28;20197;-64
2022/03/09 01:50:12;;;;;;;18.88;11.18;;;;;;;;;;5082700;28;20298;-64
2022/03/09 01:52:40;;;;;;;18.75;11.60;;;;;;;;;;5082756;28;20203;-64
2022/03/09 01:55:06;;;;;;;18.40;11.45;;;;;;;;;;5082668;28;20196;-64
2022/03/09 01:57:33;;;;;;;17.90;10.80;;;;;;;;;;5082239;28;20192;-64
2022/03/09 02:00:00;;;;;;;16.63;10.80;;;;;;;;;;5082718;28;20444;-64
2022/03/09 02:02:26;;;;;;;17.10;10.70;;;;;;;;;;5082579;28;20196;-64
2022/03/09 02:04:52;;;;;;;15.25;10.57;;;;;;;;;;5082336;28;20200;-64
2022/03/09 02:09:41;;;;;;;18.60;11.63;;;;;;;;;;5082352;28;20557;-64
2022/03/09 02:10:07;;;;;;;16.40;10.55;;;;;;;;;;5082299;28;20228;-64
2022/03/09 02:12:33;;;;;;;19.45;10.85;;;;;;;;;;5082586;28;20403;-64
2022/03/09 02:15:00;;;;;;;19.33;9.90;;;;;;;;;;5082380;28;20196;-64
2022/03/09 02:17:27;;;;;;;19.75;10.80;;;;;;;;;;5082158;28;20267;-64
2022/03/09 02:19:55;;;;;;;16.70;10.68;;;;;;;;;;5082387;28;20224;-64
2022/03/09 02:22:26;;;;;;;19.80;10.15;;;;;;;;;;5082221;28;20204;-64
2022/03/09 02:24:52;;;;;;;11.63;8.48;;;;;;;;;;5082600;28;20208;-64
2022/03/09 02:27:20;;;;;;;11.73;8.43;;;;;;;;;;5082259;28;20203;-64
2022/03/09 02:29:47;;;;;;;12.13;8.95;;;;;;;;;;5082321;28;20196;-64
2022/03/09 02:32:13;;;;;;;14.00;8.77;;;;;;;;;;5082408;28;20422;-64
2022/03/09 02:34:39;;;;;;;10.80;8.77;;;;;;;;;;5082488;28;20244;-64
2022/03/09 02:37:05;;;;;;;15.38;9.88;;;;;;;;;;5088253;28;20200;-64
2022/03/09 02:39:33;;;;;;;14.02;8.63;;;;;;;;;;5089042;28;20203;-64
2022/03/09 02:41:59;;;;;;;13.77;9.40;;;;;;;;;;5088933;28;20242;-64
2022/03/09 02:44:25;;;;;;;11.85;8.90;;;;;;;;;;5089058;28;20196;-64
2022/03/09 02:46:52;;;;;;;12.88;8.95;;;;;;;;;;5088655;28;20261;-64
2022/03/09 02:49:18;;;;;;;13.27;8.98;;;;;;;;;;5087980;28;20263;-64
2022/03/09 02:51:44;;;;;;;14.13;9.15;;;;;;;;;;5088625;28;20204;-64
2022/03/09 02:54:11;;;;;;;13.18;8.98;;;;;;;;;;5088948;28;20207;-64
2022/03/09 02:56:38;;;;;;;15.63;9.45;;;;;;;;;;5088325;28;20234;-64
2022/03/09 02:59:05;;;;;;;11.30;8.60;;;;;;;;;;5088623;28;20196;-64
2022/03/09 03:01:31;;;;;;;12.27;8.95;;;;;;;;;;5088744;28;20281;-64
2022/03/09 03:03:57;;;;;;;10.75;8.38;;;;;;;;;;5088774;28;20210;-64
2022/03/09 03:06:23;;;;;;;12.88;8.68;;;;;;;;;;5088421;28;20220;-64
2022/03/09 03:08:50;;;;;;;14.02;9.70;;;;;;;;;;5088646;28;20518;-64
2022/03/09 03:11:17;;;;;;;14.77;9.35;;;;;;;;;;5088569;28;20197;-64
2022/03/09 03:13:44;;;;;;;15.38;10.23;;;;;;;;;;5088334;28;20382;-64
2022/03/09 03:16:11;;;;;;;16.30;10.13;;;;;;;;;;5088431;28;20546;-64
2022/03/09 03:18:37;;;;;;;16.20;9.73;;;;;;;;;;5088560;28;20231;-64
2022/03/09 03:21:04;;;;;;;13.85;10.20;;;;;;;;;;5088474;28;20220;-64
2022/03/09 03:23:32;;;;;;;15.63;10.90;;;;;;;;;;5088361;28;20222;-64
2022/03/09 03:25:59;;;;;;;16.73;10.40;;;;;;;;;;5088799;28;20441;-64
2022/03/09 03:28:25;;;;;;;22.00;11.10;;;;;;;;;;5088311;28;20607;-64
2022/03/09 03:30:53;;;;;;;17.58;11.07;;;;;;;;;;5088516;28;20199;-64
2022/03/09 03:33:20;;;;;;;16.92;10.73;;;;;;;;;;5088375;28;20196;-64
2022/03/09 03:35:47;;;;;;;16.80;10.90;;;;;;;;;;5088295;28;20203;-64
2022/03/09 03:38:14;;;;;;;16.02;10.98;;;;;;;;;;5088141;28;20270;-64
2022/03/09 03:40:40;;;;;;;16.83;10.90;;;;;;;;;;5088172;28;20220;-64
2022/03/09 03:43:07;;;;;;;17.27;11.43;;;;;;;;;;5088213;28;20393;-64
2022/03/09 03:45:33;;;;;;;16.90;10.50;;;;;;;;;;5088577;28;20200;-64
2022/03/09 03:48:01;;;;;;;15.57;11.15;;;;;;;;;;5084247;28;20196;-64
2022/03/09 03:50:27;;;;;;;16.40;10.25;;;;;;;;;;5084986;28;20495;-64
2022/03/09 03:52:53;;;;;;;16.52;10.05;;;;;;;;;;5085043;28;20530;-64
2022/03/09 03:55:20;;;;;;;15.35;10.18;;;;;;;;;;5085300;28;20205;-64
2022/03/09 03:57:46;;;;;;;19.13;10.38;;;;;;;;;;5085034;28;20203;-64
2022/03/09 04:00:13;;;;;;;16.25;10.57;;;;;;;;;;5084953;28;20224;-64
2022/03/09 04:02:39;;;;;;;16.20;10.18;;;;;;;;;;5084751;28;20203;-64
2022/03/09 04:05:07;;;;;;;14.57;10.38;;;;;;;;;;5084807;28;20217;-64
2022/03/09 04:07:33;;;;;;;18.05;10.27;;;;;;;;;;5084656;28;20200;-65
2022/03/09 04:10:00;;;;;;;15.40;10.48;;;;;;;;;;5084639;28;20201;-64
2022/03/09 04:12:26;;;;;;;17.13;10.57;;;;;;;;;;5084847;28;20601;-64
2022/03/09 04:14:53;;;;;;;15.15;10.15;;;;;;;;;;5085000;28;20523;-64
2022/03/09 04:17:19;;;;;;;14.85;10.70;;;;;;;;;;5084405;28;20196;-64
2022/03/09 04:19:46;;;;;;;14.95;10.32;;;;;;;;;;5084492;28;20197;-64
2022/03/09 04:22:13;;;;;;;19.42;11.25;;;;;;;;;;5084703;28;20242;-64
2022/03/09 04:24:40;;;;;;;16.20;11.00;;;;;;;;;;5084450;28;20204;-64
2022/03/09 04:27:06;;;;;;;17.17;11.13;;;;;;;;;;5084210;28;20204;-64
2022/03/09 04:29:32;;;;;;;19.42;11.50;;;;;;;;;;5084457;28;20192;-64
2022/03/09 04:31:59;;;;;;;17.23;11.20;;;;;;;;;;5084323;28;20201;-64
2022/03/09 04:34:25;;;;;;;15.30;11.50;;;;;;;;;;5084239;28;20196;-64
2022/03/09 04:36:51;;;;;;;16.75;11.02;;;;;;;;;;5083931;28;20203;-64
2022/03/09 04:39:19;;;;;;;17.25;11.77;;;;;;;;;;5084330;28;20196;-64
2022/03/09 04:41:45;;;;;;;23.30;11.93;;;;;;;;;;5084157;28;20216;-64
2022/03/09 04:44:11;;;;;;;15.75;10.85;;;;;;;;;;5084274;28;20223;-64
2022/03/09 04:46:37;;;;;;;16.55;11.45;;;;;;;;;;5083803;28;20561;-64
2022/03/09 04:49:04;;;;;;;17.48;11.77;;;;;;;;;;5083986;28;20200;-64
2022/03/09 04:51:30;;;;;;;15.48;11.10;;;;;;;;;;5083768;28;20201;-64
2022/03/09 04:53:56;;;;;;;17.25;11.38;;;;;;;;;;5083745;28;20242;-64
2022/03/09 04:56:24;;;;;;;15.00;10.45;;;;;;;;;;5083909;28;20218;-64
2022/03/09 04:58:50;;;;;;;15.48;10.70;;;;;;;;;;5083390;28;20277;-64
2022/03/09 05:01:16;;;;;;;14.13;11.32;;;;;;;;;;5083681;28;20270;-64
2022/03/09 05:03:42;;;;;;;18.33;11.20;;;;;;;;;;5083576;28;20197;-64
2022/03/09 05:06:09;;;;;;;19.00;11.73;;;;;;;;;;5083174;28;20431;-64
2022/03/09 05:08:35;;;;;;;17.63;11.77;;;;;;;;;;5083583;28;20212;-64
2022/03/09 05:11:01;;;;;;;16.77;11.20;;;;;;;;;;5083659;28;20201;-64
2022/03/09 05:13:29;;;;;;;18.48;11.48;;;;;;;;;;5083258;28;20436;-64
2022/03/09 05:15:55;;;;;;;15.85;11.00;;;;;;;;;;5083257;28;20242;-64
2022/03/09 05:18:21;;;;;;;16.55;11.20;;;;;;;;;;5083144;28;20200;-64
2022/03/09 05:20:48;;;;;;;16.70;11.57;;;;;;;;;;5083164;28;20217;-64
2022/03/09 05:23:14;;;;;;;20.05;11.35;;;;;;;;;;5083394;28;20197;-64
2022/03/09 05:25:40;;;;;;;19.52;11.70;;;;;;;;;;5083300;28;20241;-64
2022/03/09 05:28:07;;;;;;;18.38;11.63;;;;;;;;;;5082927;28;20203;-64
2022/03/09 05:30:34;;;;;;;21.63;12.10;;;;;;;;;;5083130;28;20192;-66
2022/03/09 05:33:01;;;;;;;20.67;11.65;;;;;;;;;;5082960;28;20234;-64
2022/03/09 05:35:27;;;;;;;22.38;12.93;;;;;;;;;;5082982;28;20258;-64
2022/03/09 05:37:53;;;;;;;24.25;12.85;;;;;;;;;;5083058;28;20196;-64
2022/03/09 05:40:19;;;;;;;21.38;12.30;;;;;;;;;;5082944;28;20453;-64
2022/03/09 05:42:46;;;;;;;23.98;12.40;;;;;;;;;;5082960;28;20433;-63
2022/03/09 05:45:12;;;;;;;20.83;13.05;;;;;;;;;;5082866;28;20196;-63
2022/03/09 05:47:40;;;;;;;18.08;12.10;;;;;;;;;;5082821;28;20196;-63
2022/03/09 05:50:07;;;;;;;18.70;12.75;;;;;;;;;;5082772;28;20204;-63
2022/03/09 05:52:33;;;;;;;21.13;12.23;;;;;;;;;;5082894;28;20199;-63
2022/03/09 05:54:59;;;;;;;20.45;11.82;;;;;;;;;;5082743;28;20192;-63
2022/03/09 05:57:25;;;;;;;23.83;12.43;;;;;;;;;;5082507;28;20214;-63
2022/03/09 05:59:52;;;;;;;23.95;11.25;;;;;;;;;;5082607;28;20202;-63
2022/03/09 06:02:18;;;;;;;20.92;11.82;;;;;;;;;;5082546;28;20224;-63
2022/03/09 06:04:46;;;;;;;23.13;11.68;;;;;;;;;;5082355;28;20285;-64
2022/03/09 06:07:13;;;;;;;23.00;12.70;;;;;;;;;;5082736;28;20258;-63
2022/03/09 06:09:39;;;;;;;25.95;12.40;;;;;;;;;;5082214;28;20203;-63
2022/03/09 06:12:05;;;;;;;16.92;11.48;;;;;;;;;;5082005;28;20239;-63
2022/03/09 06:14:32;;;;;;;27.33;12.60;;;;;;;;;;5082369;28;20200;-64
2022/03/09 06:16:58;;;;;;;21.38;12.38;;;;;;;;;;5082071;28;20234;-64
2022/03/09 06:19:24;;;;;;;20.00;11.30;;;;;;;;;;5082597;28;20242;-63
2022/03/09 06:21:52;;;;;;;20.80;12.25;;;;;;;;;;5082393;28;20288;-63
2022/03/09 06:24:18;;;;;;;24.92;12.40;;;;;;;;;;5082271;28;20197;-64
2022/03/09 06:26:44;;;;;;;18.75;11.52;;;;;;;;;;5082022;28;20250;-63
2022/03/09 06:29:11;;;;;;;23.88;11.93;;;;;;;;;;5082057;28;20197;-63
2022/03/09 06:31:37;;;;;;;20.08;12.18;;;;;;;;;;5082022;28;20476;-63
2022/03/09 06:34:03;;;;;;;24.15;11.88;;;;;;;;;;5082280;28;20197;-64
2022/03/09 06:36:30;;;;;;;26.10;11.98;;;;;;;;;;5082027;28;20387;-63
2022/03/09 06:38:57;;;;;;;26.88;12.32;;;;;;;;;;5082238;28;20208;-65
2022/03/09 06:41:24;;;;;;;18.95;12.05;;;;;;;;;;5082083;28;20290;-65
2022/03/09 06:43:50;;;;;;;18.77;11.77;;;;;;;;;;5081822;28;20492;-65
2022/03/09 06:46:16;;;;;;;24.15;12.60;;;;;;;;;;5081058;28;20216;-65
2022/03/09 06:48:43;;;;;;;21.52;13.00;;;;;;;;;;5081664;28;20246;-65
2022/03/09 06:51:09;;;;;;;22.73;13.73;;;;;;;;;;5081808;28;20202;-65
2022/03/09 06:53:35;;;;;;;23.42;12.48;;;;;;;;;;5081499;28;20196;-65
2022/03/09 06:56:03;;;;;;;16.73;11.55;;;;;;;;;;5081413;28;20196;-65
2022/03/09 06:58:29;;;;;;;28.85;12.10;;;;;;;;;;5081386;28;20286;-65
2022/03/09 07:00:57;;;;;;;26.58;12.63;;;;;;;;;;5081156;28;20224;-65
2022/03/09 07:03:23;;;;;;;20.88;12.23;;;;;;;;;;5081414;28;20200;-65
2022/03/09 07:05:49;;;;;;;20.77;11.88;;;;;;;;;;5081371;28;20547;-65
2022/03/09 07:08:16;;;;;;;18.70;12.68;;;;;;;;;;5073319;28;20457;-65
2022/03/09 07:10:42;;;;;;;18.38;11.90;;;;;;;;;;5067546;28;20546;-65
2022/03/09 07:13:09;;;;;;;20.05;12.23;;;;;;;;;;5064579;28;20213;-65
2022/03/09 07:15:36;;;;;;;28.75;12.90;;;;;;;;;;5076121;28;20209;-65
2022/03/09 07:18:02;;;;;;;21.65;12.05;;;;;;;;;;5075692;28;20216;-65
2022/03/09 07:20:28;;;;;;;19.60;12.52;;;;;;;;;;5075603;28;20212;-65
2022/03/09 07:22:55;;;;;;;24.55;12.70;;;;;;;;;;5078693;28;20568;-65
2022/03/09 07:25:21;;;;;;;19.60;12.57;;;;;;;;;;5079745;28;20208;-65
2022/03/09 07:27:47;;;;;;;22.58;12.88;;;;;;;;;;5079731;28;20232;-65
2022/03/09 07:30:15;;;;;;;33.03;12.80;;;;;;;;;;5079491;28;20212;-65
2022/03/09 07:32:41;;;;;;;24.67;13.68;;;;;;;;;;5079988;28;20270;-65
2022/03/09 07:35:08;;;;;;;36.38;16.73;;;;;;;;;;5079966;28;20424;-66
2022/03/09 07:37:34;;;;;;;31.25;16.90;;;;;;;;;;5079683;28;20291;-65
2022/03/09 07:40:01;;;;;;;33.58;16.40;;;;;;;;;;5079670;28;20220;-65
2022/03/09 07:42:27;;;;;;;34.70;17.17;;;;;;;;;;5079390;28;20455;-65
2022/03/09 07:44:53;;;;;;;27.67;15.23;;;;;;;;;;5079656;28;20212;-65
2022/03/09 07:47:21;;;;;;;28.05;13.50;;;;;;;;;;5079383;28;20215;-65
2022/03/09 07:49:47;;;;;;;27.65;12.98;;;;;;;;;;5079161;28;20208;-65
2022/03/09 07:52:14;;;;;;;24.33;13.80;;;;;;;;;;5079663;28;20208;-65
2022/03/09 07:54:40;;;;;;;19.95;13.18;;;;;;;;;;5079603;28;20256;-65
2022/03/09 07:57:06;;;;;;;22.02;12.68;;;;;;;;;;5079298;28;20208;-65
2022/03/09 07:59:32;;;;;;;21.17;12.93;;;;;;;;;;5079305;28;20208;-65
2022/03/09 08:01:59;;;;;;;19.67;12.88;;;;;;;;;;5079193;28;20220;-65
2022/03/09 08:04:26;;;;;;;15.93;11.93;;;;;;;;;;5079203;28;20216;-65
2022/03/09 08:06:53;;;;;;;29.27;11.30;;;;;;;;;;5078787;28;20240;-66
2022/03/09 08:09:20;;;;;;;22.77;12.20;;;;;;;;;;5078777;28;20541;-65
2022/03/09 08:11:46;;;;;;;19.33;12.40;;;;;;;;;;5078054;28;20231;-65
2022/03/09 08:14:13;;;;;;;21.25;12.40;;;;;;;;;;5078163;28;20212;-66
2022/03/09 08:16:39;;;;;;;26.23;12.45;;;;;;;;;;5079177;28;20211;-65
2022/03/09 08:19:06;;;;;;;19.45;11.57;;;;;;;;;;5079127;28;20457;-65
2022/03/09 08:21:33;;;;;;;17.40;11.57;;;;;;;;;;5078723;28;20228;-65
2022/03/09 08:24:00;;;;;;;17.85;10.88;;;;;;;;;;5078301;28;20216;-66
2022/03/09 08:26:26;;;;;;;20.52;11.85;;;;;;;;;;5078643;28;20283;-66
2022/03/09 08:28:52;;;;;;;21.33;12.30;;;;;;;;;;5078893;28;20208;-66
2022/03/09 08:31:19;;;;;;;15.70;10.52;;;;;;;;;;5079022;28;20258;-66
2022/03/09 08:33:45;;;;;;;12.10;10.07;;;;;;;;;;5077415;28;20212;-66
2022/03/09 08:36:12;;;;;;;16.55;11.18;;;;;;;;;;5078750;28;20209;-66
2022/03/09 08:38:39;;;;;;;13.43;10.10;;;;;;;;;;5078935;28;20208;-66
2022/03/09 08:41:06;;;;;;;17.77;10.77;;;;;;;;;;5078226;28;20212;-66
2022/03/09 08:43:32;;;;;;;15.40;10.43;;;;;;;;;;5077354;28;20572;-67
2022/03/09 08:45:58;;;;;;;16.17;10.98;;;;;;;;;;5075886;28;20208;-66
2022/03/09 08:48:26;;;;;;;17.67;10.45;;;;;;;;;;5078018;28;20205;-66
2022/03/09 08:50:52;;;;;;;14.43;9.95;;;;;;;;;;5078440;28;20544;-66
2022/03/09 08:53:19;;;;;;;17.08;10.32;;;;;;;;;;5078066;28;20208;-66
2022/03/09 08:55:46;;;;;;;14.57;10.45;;;;;;;;;;5077000;28;20212;-66
2022/03/09 08:58:12;;;;;;;16.52;10.55;;;;;;;;;;5077834;28;20532;-66
2022/03/09 09:00:39;;;;;;;17.23;10.48;;;;;;;;;;5078463;28;20504;-66
2022/03/09 09:03:05;;;;;;;21.08;10.75;;;;;;;;;;5078261;28;20262;-66
2022/03/09 09:05:31;;;;;;;17.38;9.95;;;;;;;;;;5076711;28;20236;-66
2022/03/09 09:07:58;;;;;;;16.42;9.65;;;;;;;;;;5077264;28;20212;-66
2022/03/09 09:10:24;;;;;;;11.50;8.50;;;;;;;;;;5078105;28;20213;-66
2022/03/09 09:12:51;;;;;;;12.15;9.73;;;;;;;;;;5078124;28;20441;-66
2022/03/09 09:15:19;;;;;;;13.02;10.05;;;;;;;;;;5077105;28;20520;-66
2022/03/09 09:17:45;;;;;;;13.45;9.55;;;;;;;;;;5077319;28;20212;-67
2022/03/09 09:20:12;;;;;;;14.93;10.38;;;;;;;;;;5077656;28;20213;-66
2022/03/09 09:22:42;;;;;;;14.02;9.73;;;;;;;;;;5077330;28;20682;-66
2022/03/09 09:25:09;;;;;;;12.88;9.60;;;;;;;;;;5077025;28;20231;-66
2022/03/09 09:27:35;;;;;;;23.60;10.30;;;;;;;;;;5075592;28;20293;-66
2022/03/09 09:30:03;;;;;;;14.98;10.30;;;;;;;;;;5077495;28;20209;-66
2022/03/09 09:32:29;;;;;;;13.98;9.77;;;;;;;;;;5077131;28;20204;-66
2022/03/09 09:34:56;;;;;;;13.18;10.45;;;;;;;;;;5076818;28;20208;-66
2022/03/09 09:37:22;;;;;;;12.07;9.93;;;;;;;;;;5074368;28;20209;-66
2022/03/09 09:39:48;;;;;;;14.45;9.95;;;;;;;;;;5076636;28;20212;-66
2022/03/09 09:42:15;;;;;;;11.88;9.52;;;;;;;;;;5076972;28;20216;-66
2022/03/09 09:44:42;;;;;;;15.15;9.45;;;;;;;;;;5076559;28;20219;-66
2022/03/09 09:47:14;;;;;;;12.35;9.82;;;;;;;;;;5077059;28;20498;-67
2022/03/09 09:49:40;;;;;;;13.90;9.20;;;;;;;;;;5071686;28;20204;-66
2022/03/09 09:52:06;;;;;;;13.40;9.00;;;;;;;;;;5079902;28;20245;-66
2022/03/09 09:54:32;;;;;;;12.27;9.48;;;;;;;;;;5079282;28;20211;-66
2022/03/09 09:56:59;;;;;;;12.48;8.80;;;;;;;;;;5078500;28;20232;-66
2022/03/09 09:59:25;;;;;;;20.00;9.63;;;;;;;;;;5078653;28;20204;-66
2022/03/09 10:01:51;;;;;;;20.08;10.52;;;;;;;;;;5079307;28;20220;-66
2022/03/09 10:04:19;;;;;;;14.15;10.10;;;;;;;;;;5079594;28;20204;-66
2022/03/09 10:06:45;;;;;;;14.23;9.80;;;;;;;;;;5079218;28;20426;-66
2022/03/09 10:09:13;;;;;;;17.10;10.60;;;;;;;;;;5079201;28;20269;-66
2022/03/09 10:11:46;;;;;;;16.15;10.45;;;;;;;;;;5079281;28;20254;-66
2022/03/09 10:14:12;;;;;;;14.07;10.88;;;;;;;;;;5077951;28;20207;-66
2022/03/09 10:16:39;;;;;;;15.15;10.35;;;;;;;;;;5079337;28;20204;-66
2022/03/09 10:19:05;;;;;;;16.60;10.38;;;;;;;;;;5070829;28;20205;-66
2022/03/09 10:21:35;;;;;;;15.48;10.20;;;;;;;;;;5068865;28;20212;-67
2022/03/09 10:24:03;;;;;;;13.43;10.45;;;;;;;;;;5076312;28;20228;-66
2022/03/09 10:26:44;;;;;;;18.05;10.80;;;;;;;;;;5078889;28;20238;-67
2022/03/09 10:29:11;;;;;;;14.57;10.85;;;;;;;;;;5077603;28;20212;-67
2022/03/09 10:31:38;;;;;;;15.15;10.77;;;;;;;;;;5076535;28;20216;-67
2022/03/09 10:34:14;;;;;;;16.48;10.73;;;;;;;;;;5076580;28;20437;-67
2022/03/09 10:36:54;;;;;;;18.13;11.55;;;;;;;;;;5075364;28;20216;-67
2022/03/09 10:39:21;;;;;;;14.50;10.68;;;;;;;;;;5076249;28;20310;-67
2022/03/09 10:41:48;;;;;;;13.75;10.80;;;;;;;;;;5075915;28;20270;-67
2022/03/09 10:44:14;;;;;;;15.27;11.38;;;;;;;;;;5076210;28;20214;-67
2022/03/09 10:46:44;;;;;;;15.25;11.52;;;;;;;;;;5075376;28;20220;-67
2022/03/09 10:49:12;;;;;;;13.77;11.18;;;;;;;;;;5076007;28;20208;-67
2022/03/09 10:51:39;;;;;;;63.72;14.20;;;;;;;;;;5076091;28;20299;-67
2022/03/09 10:54:08;;;;;;;25.08;12.63;;;;;;;;;;5076237;28;20262;-67
2022/03/09 10:56:35;;;;;;;16.52;11.52;;;;;;;;;;5076352;28;20271;-66
2022/03/09 10:59:11;;;;;;;18.67;11.38;;;;;;;;;;5078721;28;20208;-66
2022/03/09 11:01:38;;;;;;;18.80;12.73;;;;;;;;;;5079504;28;20208;-66
2022/03/09 11:04:10;;;;;;;19.40;12.52;;;;;;;;;;5079781;28;20414;-66
2022/03/09 11:06:37;;;;;;;23.23;12.65;;;;;;;;;;5059513;28;20225;-65
2022/03/09 11:09:03;;;;;;;24.75;12.38;;;;;;;;;;5060202;28;20247;-66
2022/03/09 11:11:31;;;;;;;17.35;12.93;;;;;;;;;;5079269;28;20212;-66
2022/03/09 11:13:59;;;;;;;18.88;13.05;;;;;;;;;;5079988;28;20212;-66
2022/03/09 11:16:25;;;;;;;18.77;14.07;;;;;;;;;;5079586;28;20555;-66
2022/03/09 11:18:54;;;;;;;21.80;13.80;;;;;;;;;;5080484;28;20444;-66
2022/03/09 11:21:21;;;;;;;21.77;14.05;;;;;;;;;;5079596;28;20538;-66
2022/03/09 11:23:48;;;;;;;22.05;14.25;;;;;;;;;;5079927;28;20445;-66
2022/03/09 11:26:17;;;;;;;22.67;14.95;;;;;;;;;;5080141;28;20507;-66
2022/03/09 11:28:45;;;;;;;20.30;14.50;;;;;;;;;;5080384;28;20208;-66
2022/03/09 11:31:12;;;;;;;21.08;16.13;;;;;;;;;;5079336;28;20253;-66
2022/03/09 11:33:43;;;;;;;21.50;15.30;;;;;;;;;;5079723;28;20212;-67
2022/03/09 11:36:26;;;;;;;24.02;15.80;;;;;;;;;;5079223;28;20213;-67
2022/03/09 11:38:53;;;;;;;25.38;17.00;;;;;;;;;;5079756;28;20212;-66
2022/03/09 11:41:20;;;;;;;24.85;16.50;;;;;;;;;;5079363;28;20212;-66
2022/03/09 11:43:48;;;;;;;27.83;17.13;;;;;;;;;;5079462;28;20224;-66
2022/03/09 11:46:14;;;;;;;26.48;16.73;;;;;;;;;;5079040;28;20579;-67
2022/03/09 11:48:50;;;;;;;27.08;16.52;;;;;;;;;;5059796;28;20212;-67
2022/03/09 11:51:17;;;;;;;27.48;16.23;;;;;;;;;;5061200;28;20216;-67
2022/03/09 11:53:53;;;;;;;26.45;17.27;;;;;;;;;;5079980;28;20403;-67
2022/03/09 11:56:27;;;;;;;25.92;17.65;;;;;;;;;;5079364;28;20204;-67
2022/03/09 11:59:11;;;;;;;21.92;16.13;;;;;;;;;;5079637;28;20539;-67
2022/03/09 12:01:55;;;;;;;25.98;16.40;;;;;;;;;;5068492;28;20412;-67
2022/03/09 12:04:36;;;;;;;21.30;15.75;;;;;;;;;;5068527;28;20569;-67
2022/03/09 12:07:04;;;;;;;35.40;16.23;;;;;;;;;;5078336;28;20213;-67
2022/03/09 12:09:55;;;;;;;23.23;16.17;;;;;;;;;;5078306;28;20212;-67
2022/03/09 12:12:21;;;;;;;22.35;15.88;;;;;;;;;;5078332;28;20230;-67
2022/03/09 12:14:59;;;;;;;21.60;14.77;;;;;;;;;;5078968;28;20577;-67
2022/03/09 12:17:28;;;;;;;20.83;15.32;;;;;;;;;;5078764;28;20208;-67
2022/03/09 12:20:15;;;;;;;24.25;15.70;;;;;;;;;;5079691;28;20212;-68
2022/03/09 12:25:41;;;;;;;20.80;15.07;;;;;;;;;;5093914;28;20565;-67
2022/03/09 12:28:38;;;;;;;21.90;14.80;;;;;;;;;;5094154;28;20552;-67
2022/03/09 12:31:16;;;;;;;23.33;15.25;;;;;;;;;;5032096;28;20206;-67
2022/03/09 12:33:43;;;;;;;30.70;21.73;;;;;;;;;;5083481;28;20531;-67
2022/03/09 12:36:11;;;;;;;29.08;19.30;;;;;;;;;;5093475;28;20208;-67
2022/03/09 12:38:37;;;;;;;18.63;14.15;;;;;;;;;;5093866;28;20430;-67
2022/03/09 12:41:05;;;;;;;23.13;16.48;;;;;;;;;;5094179;28;20212;-67
2022/03/09 12:43:45;;;;;;;18.63;14.32;;;;;;;;;;5093609;28;20207;-67
2022/03/09 12:46:11;;;;;;;16.48;12.68;;;;;;;;;;5093624;28;20215;-67
2022/03/09 12:48:39;;;;;;;18.17;13.63;;;;;;;;;;5093785;28;20208;-67
2022/03/09 12:51:05;;;;;;;20.42;13.15;;;;;;;;;;5094048;28;20265;-68
2022/03/09 12:53:32;;;;;;;17.98;13.13;;;;;;;;;;5094032;28;20212;-67
2022/03/09 12:55:58;;;;;;;15.25;11.38;;;;;;;;;;5092823;28;20449;-67
2022/03/09 12:58:26;;;;;;;14.70;11.25;;;;;;;;;;5093673;28;20600;-67
2022/03/09 13:01:00;;;;;;;16.10;11.43;;;;;;;;;;5093696;28;20425;-67
2022/03/09 13:03:28;;;;;;;13.35;10.85;;;;;;;;;;5093939;28;20393;-68
2022/03/09 13:05:55;;;;;;;15.43;10.60;;;;;;;;;;5081809;28;20252;-67
2022/03/09 13:08:21;;;;;;;12.63;10.02;;;;;;;;;;5073330;28;20374;-68
2022/03/09 13:10:51;;;;;;;13.07;10.25;;;;;;;;;;5073327;28;20209;-68
2022/03/09 13:13:17;;;;;;;12.65;10.20;;;;;;;;;;5073396;28;20275;-68
2022/03/09 13:15:46;;;;;;;11.98;8.93;;;;;;;;;;5072116;28;20212;-68
2022/03/09 13:18:13;;;;;;;11.77;9.88;;;;;;;;;;5073047;28;20580;-67
2022/03/09 13:20:42;;;;;;;11.07;9.77;;;;;;;;;;5073055;28;20465;-68
2022/03/09 13:23:24;;;;;;;10.85;9.20;;;;;;;;;;5073237;28;20548;-67
2022/03/09 13:25:50;;;;;;;10.80;9.57;;;;;;;;;;5071946;28;20277;-68
2022/03/09 13:28:25;;;;;;;10.90;8.90;;;;;;;;;;5072849;28;20215;-68
2022/03/09 13:30:56;;;;;;;10.88;9.52;;;;;;;;;;5072646;28;20465;-67
2022/03/09 13:33:22;;;;;;;11.80;9.63;;;;;;;;;;5072903;28;20251;-68
2022/03/09 13:35:49;;;;;;;11.38;9.88;;;;;;;;;;5065867;28;20389;-67
2022/03/09 13:38:19;;;;;;;10.60;9.50;;;;;;;;;;5058694;28;20205;-68
2022/03/09 13:40:46;;;;;;;10.50;9.07;;;;;;;;;;5059370;28;20429;-67
2022/03/09 13:43:12;;;;;;;13.45;10.10;;;;;;;;;;5059554;28;20213;-67
2022/03/09 13:45:40;;;;;;;11.20;9.77;;;;;;;;;;5058996;28;20233;-67
2022/03/09 13:48:19;;;;;;;10.38;9.38;;;;;;;;;;5058782;28;20219;-68
2022/03/09 13:50:48;;;;;;;12.43;9.77;;;;;;;;;;5059728;28;20259;-67
2022/03/09 13:53:15;;;;;;;12.18;10.45;;;;;;;;;;5059187;28;20638;-67
2022/03/09 13:55:42;;;;;;;13.32;9.52;;;;;;;;;;5058944;28;20216;-67
2022/03/09 13:58:09;;;;;;;10.95;9.32;;;;;;;;;;5058581;28;20213;-67
2022/03/09 14:00:38;;;;;;;12.30;10.27;;;;;;;;;;5059123;28;20244;-67
2022/03/09 14:03:10;;;;;;;9.95;8.77;;;;;;;;;;5059111;28;20450;-67
2022/03/09 14:05:38;;;;;;;11.88;8.93;;;;;;;;;;5058451;28;20274;-67
2022/03/09 14:08:05;;;;;;;11.95;10.02;;;;;;;;;;5058421;28;20385;-67
2022/03/09 14:10:32;;;;;;;13.65;10.07;;;;;;;;;;5059165;28;20276;-67
2022/03/09 14:13:07;;;;;;;13.27;9.93;;;;;;;;;;5058887;28;20224;-67
2022/03/09 14:15:33;;;;;;;14.68;10.38;;;;;;;;;;5058390;28;20204;-67
2022/03/09 14:18:00;;;;;;;14.40;11.32;;;;;;;;;;5058051;28;20518;-67
2022/03/09 14:20:28;;;;;;;19.30;12.25;;;;;;;;;;5058519;28;20251;-67
2022/03/09 14:22:54;;;;;;;17.92;11.68;;;;;;;;;;5058750;28;20247;-67
2022/03/09 14:25:20;;;;;;;13.38;10.45;;;;;;;;;;5058261;28;20563;-67